createdAt,value
2023-04-14T00:01:49.779Z,50.40
2023-04-14T00:04:16.517Z,50.30
2023-04-14T00:06:43.126Z,50.40
2023-04-14T00:09:09.602Z,50.20
2023-04-14T00:11:36.088Z,50.30
2023-04-14T00:14:02.572Z,50.30
2023-04-14T00:16:29.050Z,50.30
2023-04-14T00:18:55.545Z,50.20
2023-04-14T00:21:22.025Z,50.30
2023-04-14T00:23:48.512Z,50.30
2023-04-14T00:26:14.999Z,50.20
2023-04-14T00:28:41.496Z,50.30
2023-04-14T00:31:08.024Z,50.20
2023-04-14T00:33:34.509Z,50.30
2023-04-14T00:36:00.993Z,50.30
2023-04-14T00:38:27.475Z,50.20
2023-04-14T00:40:53.953Z,50.20
2023-04-14T00:43:20.441Z,50.20
2023-04-14T00:45:46.913Z,50.30
2023-04-14T00:48:13.399Z,50.30
2023-04-14T00:50:39.873Z,50.20
2023-04-14T00:53:06.360Z,50.20
2023-04-14T00:55:32.850Z,50.10
2023-04-14T00:57:59.310Z,50.20
2023-04-14T01:00:25.779Z,50.30
2023-04-14T01:02:52.492Z,50.30
2023-04-14T01:05:19.257Z,50.40
2023-04-14T01:07:45.809Z,50.30
2023-04-14T01:10:12.337Z,50.90
2023-04-14T01:12:38.819Z,50.30
2023-04-14T01:15:05.526Z,50.10
2023-04-14T01:17:32.062Z,50.00
2023-04-14T01:19:58.590Z,50.30
2023-04-14T01:22:25.056Z,50.10
2023-04-14T01:24:51.536Z,50.10
2023-04-14T01:27:17.964Z,50.10
2023-04-14T01:29:44.463Z,50.20
2023-04-14T01:32:10.914Z,50.10
2023-04-14T01:34:37.379Z,50.00
2023-04-14T01:37:03.859Z,50.20
2023-04-14T01:39:30.343Z,50.30
2023-04-14T01:41:56.815Z,50.10
2023-04-14T01:44:23.316Z,50.20
2023-04-14T01:46:49.784Z,50.20
2023-04-14T01:49:16.394Z,50.30
2023-04-14T01:51:42.931Z,50.30
2023-04-14T01:54:09.428Z,50.20
2023-04-14T01:56:35.901Z,50.20
2023-04-14T01:59:02.527Z,50.30
2023-04-14T02:01:29.250Z,50.30
2023-04-14T02:03:55.876Z,50.30
2023-04-14T02:06:22.410Z,50.30
2023-04-14T02:08:48.903Z,50.30
2023-04-14T02:11:15.428Z,50.20
2023-04-14T02:13:41.905Z,50.30
2023-04-14T02:16:08.410Z,50.90
2023-04-14T02:18:34.909Z,50.20
2023-04-14T02:21:01.384Z,50.30
2023-04-14T02:23:27.856Z,50.30
2023-04-14T02:25:54.325Z,50.20
2023-04-14T02:28:20.788Z,50.10
2023-04-14T02:30:47.278Z,50.10
2023-04-14T02:33:13.768Z,50.30
2023-04-14T02:35:40.263Z,50.00
2023-04-14T02:38:06.732Z,50.30
2023-04-14T02:40:33.208Z,50.30
2023-04-14T02:42:59.670Z,50.30
2023-04-14T02:45:26.161Z,50.30
2023-04-14T02:47:52.704Z,50.30
2023-04-14T02:50:19.221Z,50.30
2023-04-14T02:52:45.677Z,50.20
2023-04-14T02:55:12.158Z,50.20
2023-04-14T02:57:38.632Z,50.10
2023-04-14T03:00:05.093Z,50.20
2023-04-14T03:02:31.628Z,50.10
2023-04-14T03:04:58.173Z,50.20
2023-04-14T03:07:24.602Z,50.20
2023-04-14T03:09:51.111Z,50.20
2023-04-14T03:12:17.558Z,50.20
2023-04-14T03:14:44.049Z,50.10
2023-04-14T03:17:10.509Z,50.00
2023-04-14T03:19:36.982Z,50.30
2023-04-14T03:22:03.445Z,50.10
2023-04-14T03:24:34.363Z,50.10
2023-04-14T03:27:00.848Z,50.30
2023-04-14T03:29:27.289Z,50.20
2023-04-14T03:31:53.748Z,50.10
2023-04-14T03:34:20.208Z,50.10
2023-04-14T03:36:46.672Z,50.10
2023-04-14T03:39:13.143Z,50.10
2023-04-14T03:41:39.644Z,50.10
2023-04-14T03:44:06.119Z,50.20
2023-04-14T03:46:32.646Z,50.10
2023-04-14T03:48:59.765Z,50.10
2023-04-14T03:51:26.402Z,50.10
2023-04-14T03:53:52.862Z,50.00
2023-04-14T03:56:19.336Z,50.10
2023-04-14T03:58:45.808Z,50.00
2023-04-14T04:01:12.299Z,50.00
2023-04-14T04:03:39.050Z,50.00
2023-04-14T04:06:05.671Z,50.00
2023-04-14T04:08:32.132Z,50.10
2023-04-14T04:10:58.615Z,50.00
2023-04-14T04:13:25.086Z,50.00
2023-04-14T04:15:51.578Z,50.00
2023-04-14T04:18:18.052Z,50.00
2023-04-14T04:20:44.560Z,50.00
2023-04-14T04:23:11.035Z,50.00
2023-04-14T04:25:37.513Z,50.00
2023-04-14T04:28:04.000Z,50.00
2023-04-14T04:30:30.489Z,50.00
2023-04-14T04:32:56.975Z,50.00
2023-04-14T04:35:23.488Z,49.90
2023-04-14T04:37:49.985Z,50.00
2023-04-14T04:40:16.474Z,50.10
2023-04-14T04:42:42.986Z,50.10
2023-04-14T04:45:09.496Z,50.20
2023-04-14T04:47:35.999Z,50.00
2023-04-14T04:50:02.508Z,49.90
2023-04-14T04:52:34.361Z,50.00
2023-04-14T04:55:00.843Z,49.90
2023-04-14T04:57:27.310Z,50.00
2023-04-14T04:59:53.785Z,49.90
2023-04-14T05:02:20.348Z,50.00
2023-04-14T05:04:46.981Z,50.00
2023-04-14T05:07:13.510Z,50.00
2023-04-14T05:09:40.054Z,50.00
2023-04-14T05:12:06.519Z,50.10
2023-04-14T05:14:33.012Z,50.00
2023-04-14T05:16:59.475Z,50.10
2023-04-14T05:19:25.966Z,50.00
2023-04-14T05:21:52.449Z,50.10
2023-04-14T05:24:18.926Z,50.00
2023-04-14T05:27:01.741Z,50.10
2023-04-14T05:29:31.837Z,50.00
2023-04-14T05:31:58.301Z,50.00
2023-04-14T05:34:24.746Z,49.90
2023-04-14T05:36:51.233Z,49.90
2023-04-14T05:39:17.710Z,50.00
2023-04-14T05:41:44.193Z,50.10
2023-04-14T05:44:10.673Z,50.10
2023-04-14T05:46:37.310Z,50.00
2023-04-14T05:49:03.978Z,50.00
2023-04-14T05:51:30.559Z,50.10
2023-04-14T05:53:57.062Z,50.10
2023-04-14T05:56:23.555Z,50.80
2023-04-14T05:58:50.037Z,50.30
2023-04-14T06:01:16.543Z,50.30
2023-04-14T06:03:43.323Z,50.20
2023-04-14T06:06:09.933Z,50.20
2023-04-14T06:08:36.400Z,50.20
2023-04-14T06:11:02.824Z,50.30
2023-04-14T06:13:31.572Z,50.20
2023-04-14T06:15:59.055Z,50.20
2023-04-14T06:18:25.534Z,50.10
2023-04-14T06:20:52.018Z,50.10
2023-04-14T06:23:18.520Z,50.20
2023-04-14T06:25:44.989Z,50.10
2023-04-14T06:28:11.471Z,50.20
2023-04-14T06:30:37.936Z,50.10
2023-04-14T06:33:04.663Z,50.10
2023-04-14T06:35:33.491Z,50.30
2023-04-14T06:38:00.509Z,50.30
2023-04-14T06:40:27.007Z,50.20
2023-04-14T06:42:53.504Z,50.30
2023-04-14T06:45:19.959Z,50.50
2023-04-14T06:47:46.483Z,50.40
2023-04-14T06:50:12.975Z,50.20
2023-04-14T06:52:39.481Z,50.40
2023-04-14T06:55:06.003Z,50.40
2023-04-14T06:57:32.512Z,50.40
2023-04-14T06:59:58.996Z,50.30
2023-04-14T07:02:25.572Z,50.30
2023-04-14T07:04:52.205Z,50.60
2023-04-14T07:07:18.792Z,50.70
2023-04-14T07:09:45.256Z,50.70
2023-04-14T07:12:11.732Z,50.40
2023-04-14T07:14:38.204Z,50.40
2023-04-14T07:17:04.684Z,50.50
2023-04-14T07:19:31.158Z,50.30
2023-04-14T07:21:57.645Z,50.60
2023-04-14T07:24:28.478Z,50.70
2023-04-14T07:26:54.954Z,50.60
2023-04-14T07:29:21.452Z,50.60
2023-04-14T07:31:47.974Z,50.60
2023-04-14T07:34:14.527Z,50.70
2023-04-14T07:36:41.009Z,50.80
2023-04-14T07:39:07.480Z,50.60
2023-04-14T07:41:33.959Z,50.80
2023-04-14T07:44:00.628Z,50.80
2023-04-14T07:46:27.391Z,50.80
2023-04-14T07:48:53.898Z,50.80
2023-04-14T07:51:20.374Z,50.70
2023-04-14T07:53:46.839Z,50.80
2023-04-14T07:56:13.320Z,50.90
2023-04-14T07:58:39.772Z,51.00
2023-04-14T08:01:06.307Z,51.20
2023-04-14T08:03:33.079Z,51.00
2023-04-14T08:05:59.774Z,51.00
2023-04-14T08:08:26.222Z,51.00
2023-04-14T08:10:52.720Z,51.10
2023-04-14T08:13:19.211Z,51.10
2023-04-14T08:15:45.759Z,51.10
2023-04-14T08:18:12.248Z,51.00
2023-04-14T08:20:40.525Z,51.10
2023-04-14T08:23:07.010Z,50.80
2023-04-14T08:25:33.483Z,50.90
2023-04-14T08:27:59.952Z,50.90
2023-04-14T08:30:26.429Z,51.10
2023-04-14T08:32:52.942Z,51.00
2023-04-14T08:35:36.370Z,51.20
2023-04-14T08:38:05.901Z,51.00
2023-04-14T08:40:32.376Z,51.00
2023-04-14T08:42:58.844Z,51.00
2023-04-14T08:45:25.365Z,51.00
2023-04-14T08:47:51.890Z,51.10
2023-04-14T08:50:18.391Z,51.10
2023-04-14T08:52:44.907Z,51.10
2023-04-14T08:55:11.379Z,51.20
2023-04-14T08:57:37.867Z,51.10
2023-04-14T09:00:04.355Z,51.10
2023-04-14T09:02:30.902Z,51.20
2023-04-14T09:04:57.592Z,51.10
2023-04-14T09:07:24.130Z,51.00
2023-04-14T09:09:50.607Z,51.10
2023-04-14T09:12:17.094Z,51.30
2023-04-14T09:14:43.570Z,51.10
2023-04-14T09:17:10.169Z,51.30
2023-04-14T09:19:36.694Z,51.20
2023-04-14T09:22:28.575Z,51.30
2023-04-14T09:24:55.056Z,51.40
2023-04-14T09:27:21.545Z,51.50
2023-04-14T09:29:48.006Z,51.40
2023-04-14T09:32:14.462Z,51.30
2023-04-14T09:34:40.975Z,51.50
2023-04-14T09:37:07.494Z,51.30
2023-04-14T09:39:34.007Z,51.60
2023-04-14T09:42:00.486Z,51.60
2023-04-14T09:44:28.549Z,51.70
2023-04-14T09:46:55.670Z,51.40
2023-04-14T09:49:22.845Z,51.80
2023-04-14T09:51:49.314Z,51.70
2023-04-14T09:54:15.788Z,51.50
2023-04-14T09:56:42.287Z,51.60
2023-04-14T09:59:10.564Z,51.50
2023-04-14T10:01:37.028Z,51.50
2023-04-14T10:04:03.552Z,51.50
2023-04-14T10:06:30.052Z,51.60
2023-04-14T10:08:56.540Z,51.60
2023-04-14T10:11:23.103Z,51.40
2023-04-14T10:13:49.610Z,51.40
2023-04-14T10:16:16.097Z,51.40
2023-04-14T10:18:42.590Z,51.40
2023-04-14T10:21:09.072Z,51.20
2023-04-14T10:23:35.547Z,51.40
2023-04-14T10:26:02.026Z,51.00
2023-04-14T10:28:28.562Z,51.10
2023-04-14T10:30:55.020Z,51.40
2023-04-14T10:33:21.492Z,51.40
2023-04-14T10:35:47.950Z,51.30
2023-04-14T10:38:14.406Z,51.20
2023-04-14T10:40:40.874Z,51.20
2023-04-14T10:43:10.638Z,51.30
2023-04-14T10:45:37.109Z,51.20
2023-04-14T10:48:03.605Z,51.10
2023-04-14T10:50:30.175Z,51.30
2023-04-14T10:52:56.654Z,51.20
2023-04-14T10:55:23.158Z,51.30
2023-04-14T10:57:49.645Z,51.20
2023-04-14T11:00:16.171Z,51.30
2023-04-14T11:02:42.793Z,51.20
2023-04-14T11:05:09.406Z,51.30
2023-04-14T11:07:35.908Z,51.80
2023-04-14T11:10:02.400Z,51.20
2023-04-14T11:12:28.908Z,51.20
2023-04-14T11:14:55.385Z,51.10
2023-04-14T11:17:23.126Z,51.10
2023-04-14T11:19:49.757Z,51.10
2023-04-14T11:22:16.235Z,51.10
2023-04-14T11:24:42.814Z,51.00
2023-04-14T11:27:09.307Z,51.10
2023-04-14T11:29:35.791Z,51.10
2023-04-14T11:32:02.303Z,51.20
2023-04-14T11:34:28.794Z,51.20
2023-04-14T11:36:55.276Z,51.10
2023-04-14T11:39:21.749Z,51.10
2023-04-14T11:41:48.238Z,51.00
2023-04-14T11:44:14.770Z,51.10
2023-04-14T11:46:41.322Z,51.00
2023-04-14T11:49:07.860Z,51.10
2023-04-14T11:51:34.327Z,51.00
2023-04-14T11:54:00.802Z,51.00
2023-04-14T11:56:27.273Z,51.10
2023-04-14T11:58:53.735Z,51.10
2023-04-14T12:01:20.223Z,51.10
2023-04-14T12:03:46.836Z,51.20
2023-04-14T12:06:13.409Z,51.10
2023-04-14T12:08:39.906Z,51.10
2023-04-14T12:11:06.367Z,51.20
2023-04-14T12:13:32.846Z,51.20
2023-04-14T12:15:59.353Z,51.10
2023-04-14T12:18:25.851Z,51.10
2023-04-14T12:20:52.305Z,51.10
2023-04-14T12:23:18.780Z,51.10
2023-04-14T12:25:45.261Z,51.00
2023-04-14T12:28:11.738Z,51.10
2023-04-14T12:30:38.226Z,51.10
2023-04-14T12:33:04.680Z,51.10
2023-04-14T12:35:31.135Z,51.00
2023-04-14T12:37:57.628Z,51.00
2023-04-14T12:40:24.081Z,51.00
2023-04-14T12:42:50.555Z,51.00
2023-04-14T12:45:22.911Z,51.10
2023-04-14T12:47:49.409Z,51.10
2023-04-14T12:50:15.927Z,51.00
2023-04-14T12:52:42.407Z,51.10
2023-04-14T12:55:08.882Z,51.80
2023-04-14T12:57:35.424Z,51.10
2023-04-14T13:00:02.043Z,51.10
2023-04-14T13:02:28.789Z,51.20
2023-04-14T13:04:55.389Z,51.20
2023-04-14T13:07:21.878Z,51.20
2023-04-14T13:09:48.390Z,51.20
2023-04-14T13:12:14.880Z,51.20
2023-04-14T13:14:41.381Z,51.20
2023-04-14T13:17:08.015Z,51.10
2023-04-14T13:19:34.582Z,51.20
2023-04-14T13:22:01.037Z,51.20
2023-04-14T13:24:27.528Z,51.10
2023-04-14T13:26:54.007Z,51.20
2023-04-14T13:29:20.507Z,51.20
2023-04-14T13:31:47.008Z,51.20
2023-04-14T13:34:13.510Z,51.20
2023-04-14T13:36:39.974Z,51.20
2023-04-14T13:39:06.454Z,51.20
2023-04-14T13:41:32.929Z,51.20
2023-04-14T13:43:59.410Z,51.20
2023-04-14T13:46:25.891Z,51.20
2023-04-14T13:48:52.385Z,51.20
2023-04-14T13:51:18.860Z,51.20
2023-04-14T13:53:45.330Z,51.20
2023-04-14T13:56:11.812Z,51.10
2023-04-14T13:58:38.294Z,51.20
2023-04-14T14:01:04.790Z,51.20
2023-04-14T14:03:32.437Z,51.10
2023-04-14T14:05:59.197Z,51.20
2023-04-14T14:08:25.666Z,51.20
2023-04-14T14:10:52.143Z,51.10
2023-04-14T14:13:18.788Z,51.10
2023-04-14T14:15:45.359Z,51.10
2023-04-14T14:18:11.862Z,51.20
2023-04-14T14:20:38.343Z,51.20
2023-04-14T14:23:04.826Z,51.10
2023-04-14T14:25:31.295Z,51.10
2023-04-14T14:27:57.755Z,51.20
2023-04-14T14:30:24.212Z,51.20
2023-04-14T14:32:50.783Z,51.20
2023-04-14T14:35:17.325Z,51.20
2023-04-14T14:37:43.791Z,51.20
2023-04-14T14:40:10.255Z,51.10
2023-04-14T14:42:36.730Z,51.10
2023-04-14T14:45:03.200Z,51.10
2023-04-14T14:47:29.689Z,51.00
2023-04-14T14:50:00.336Z,51.10
2023-04-14T14:52:33.504Z,51.10
2023-04-14T14:55:00.015Z,51.10
2023-04-14T14:57:26.488Z,51.10
2023-04-14T14:59:52.948Z,51.10
2023-04-14T15:02:19.649Z,51.10
2023-04-14T15:04:46.205Z,51.10
2023-04-14T15:07:12.681Z,51.00
2023-04-14T15:09:39.150Z,51.00
2023-04-14T15:12:05.623Z,51.00
2023-04-14T15:14:32.125Z,51.10
2023-04-14T15:16:58.602Z,51.10
2023-04-14T15:19:25.083Z,51.10
2023-04-14T15:21:51.557Z,51.10
2023-04-14T15:24:18.049Z,51.20
2023-04-14T15:26:44.506Z,51.20
2023-04-14T15:29:10.952Z,51.20
2023-04-14T15:31:37.488Z,51.10
2023-04-14T15:34:04.275Z,51.20
2023-04-14T15:36:30.961Z,51.20
2023-04-14T15:38:58.887Z,51.20
2023-04-14T15:41:25.360Z,51.20
2023-04-14T15:43:51.811Z,51.20
2023-04-14T15:46:18.261Z,51.20
2023-04-14T15:48:44.725Z,51.20
2023-04-14T15:51:11.220Z,51.30
2023-04-14T15:53:37.681Z,51.20
2023-04-14T15:56:04.164Z,51.20
2023-04-14T15:58:30.652Z,51.20
2023-04-14T16:00:57.156Z,51.20
2023-04-14T16:03:23.919Z,51.20
2023-04-14T16:05:50.575Z,51.20
2023-04-14T16:08:17.040Z,51.20
2023-04-14T16:10:43.514Z,51.30
2023-04-14T16:13:09.981Z,51.20
2023-04-14T16:15:36.467Z,51.20
2023-04-14T16:18:02.993Z,51.20
2023-04-14T16:20:29.515Z,51.20
2023-04-14T16:22:55.992Z,51.20
2023-04-14T16:25:22.908Z,51.20
2023-04-14T16:27:50.314Z,51.20
2023-04-14T16:30:16.790Z,51.30
2023-04-14T16:32:43.291Z,51.30
2023-04-14T16:35:09.809Z,51.30
2023-04-14T16:37:36.282Z,51.30
2023-04-14T16:40:05.017Z,51.20
2023-04-14T16:42:31.490Z,51.30
2023-04-14T16:44:57.979Z,51.30
2023-04-14T16:47:24.487Z,51.30
2023-04-14T16:49:50.972Z,51.30
2023-04-14T16:52:17.450Z,51.20
2023-04-14T16:54:43.918Z,51.30
2023-04-14T16:57:10.367Z,51.30
2023-04-14T16:59:36.828Z,51.20
2023-04-14T17:02:05.083Z,51.20
2023-04-14T17:04:31.757Z,51.20
2023-04-14T17:06:58.277Z,51.20
2023-04-14T17:09:24.753Z,51.30
2023-04-14T17:11:51.233Z,51.30
2023-04-14T17:14:17.699Z,51.20
2023-04-14T17:16:44.221Z,51.20
2023-04-14T17:19:10.693Z,51.20
2023-04-14T17:21:37.157Z,51.20
2023-04-14T17:24:03.775Z,51.30
2023-04-14T17:26:30.467Z,51.20
2023-04-14T17:28:56.928Z,51.30
2023-04-14T17:31:23.456Z,51.20
2023-04-14T17:33:49.988Z,51.30
2023-04-14T17:36:16.550Z,51.20
2023-04-14T17:38:43.088Z,51.30
2023-04-14T17:41:10.988Z,51.30
2023-04-14T17:43:38.689Z,51.30
2023-04-14T17:46:05.230Z,51.30
2023-04-14T17:48:31.729Z,51.30
2023-04-14T17:50:58.212Z,52.00
2023-04-14T17:53:24.675Z,51.40
2023-04-14T17:55:51.151Z,51.30
2023-04-14T17:58:17.617Z,51.30
2023-04-14T18:00:44.085Z,51.40
2023-04-14T18:03:10.632Z,51.40
2023-04-14T18:05:37.163Z,51.40
2023-04-14T18:08:03.614Z,51.40
2023-04-14T18:10:30.087Z,51.50
2023-04-14T18:12:56.571Z,51.50
2023-04-14T18:15:29.041Z,51.50
2023-04-14T18:17:55.552Z,51.50
2023-04-14T18:20:22.030Z,51.50
2023-04-14T18:22:48.496Z,51.50
2023-04-14T18:25:19.267Z,51.50
2023-04-14T18:30:16.092Z,51.60
2023-04-14T18:32:42.621Z,51.60
2023-04-14T18:35:10.205Z,51.50
2023-04-14T18:37:36.670Z,51.60
2023-04-14T18:40:03.219Z,51.60
2023-04-14T18:42:29.698Z,51.60
2023-04-14T18:44:56.169Z,51.60
2023-04-14T18:47:22.660Z,51.60
2023-04-14T18:49:49.144Z,51.80
2023-04-14T18:52:15.606Z,51.80
2023-04-14T18:54:42.072Z,51.80
2023-04-14T18:57:08.545Z,51.80
2023-04-14T18:59:35.033Z,51.80
2023-04-14T19:02:01.601Z,51.80
2023-04-14T19:04:28.191Z,51.90
2023-04-14T19:06:54.673Z,51.90
2023-04-14T19:09:21.165Z,52.00
2023-04-14T19:11:47.628Z,52.00
2023-04-14T19:14:14.109Z,51.90
2023-04-14T19:16:40.586Z,51.90
2023-04-14T19:19:07.048Z,51.80
2023-04-14T19:21:33.537Z,51.80
2023-04-14T19:24:00.004Z,52.00
2023-04-14T19:26:26.509Z,51.90
2023-04-14T19:28:53.038Z,52.00
2023-04-14T19:31:19.567Z,52.00
2023-04-14T19:33:46.043Z,52.00
2023-04-14T19:36:12.516Z,52.10
2023-04-14T19:38:38.983Z,52.00
2023-04-14T19:41:05.455Z,51.80
2023-04-14T19:43:35.157Z,52.10
2023-04-14T19:46:01.638Z,51.80
2023-04-14T19:48:28.159Z,52.00
2023-04-14T19:50:55.142Z,52.00
2023-04-14T19:53:21.851Z,52.10
2023-04-14T19:55:48.370Z,52.00
2023-04-14T19:58:14.837Z,52.00
2023-04-14T20:00:41.340Z,52.10
2023-04-14T20:03:07.848Z,52.00
2023-04-14T20:05:34.413Z,51.80
2023-04-14T20:08:00.893Z,52.10
2023-04-14T20:10:27.360Z,52.20
2023-04-14T20:12:53.822Z,52.00
2023-04-14T20:15:20.270Z,51.80
2023-04-14T20:17:46.819Z,52.00
2023-04-14T20:20:17.364Z,51.90
2023-04-14T20:22:43.852Z,51.90
2023-04-14T20:25:10.327Z,51.80
2023-04-14T20:27:36.814Z,52.30
2023-04-14T20:30:03.316Z,51.90
2023-04-14T20:32:29.799Z,51.80
2023-04-14T20:34:56.309Z,51.80
2023-04-14T20:37:22.798Z,52.00
2023-04-14T20:39:49.265Z,51.90
2023-04-14T20:42:15.736Z,51.80
2023-04-14T20:44:42.188Z,51.70
2023-04-14T20:47:08.661Z,51.70
2023-04-14T20:49:35.127Z,51.80
2023-04-14T20:52:01.603Z,51.80
2023-04-14T20:54:28.060Z,51.90
2023-04-14T20:56:54.519Z,52.30
2023-04-14T20:59:20.973Z,51.80
2023-04-14T21:01:47.548Z,51.60
2023-04-14T21:04:14.212Z,51.80
2023-04-14T21:06:41.176Z,51.80
2023-04-14T21:09:07.655Z,51.80
2023-04-14T21:11:34.146Z,51.80
2023-04-14T21:15:40.473Z,51.70
2023-04-14T21:16:47.148Z,51.60
2023-04-14T21:19:13.683Z,51.80
2023-04-14T21:21:41.194Z,51.70
2023-04-14T21:24:07.648Z,51.70
2023-04-14T21:26:34.118Z,51.60
2023-04-14T21:29:00.765Z,51.70
2023-04-14T21:31:27.477Z,51.70
2023-04-14T21:33:54.035Z,51.60
2023-04-14T21:36:20.545Z,51.80
2023-04-14T21:38:47.191Z,51.70
2023-04-14T21:41:13.659Z,51.60
2023-04-14T21:43:40.125Z,51.60
2023-04-14T21:46:06.677Z,51.60
2023-04-14T21:48:33.174Z,51.80
2023-04-14T21:50:59.664Z,51.70
2023-04-14T21:53:29.212Z,51.70
2023-04-14T21:56:09.237Z,51.80
2023-04-14T21:58:37.336Z,51.80
2023-04-14T22:01:03.819Z,51.70
2023-04-14T22:03:30.482Z,51.50
2023-04-14T22:05:57.088Z,51.70
2023-04-14T22:08:23.616Z,51.80
2023-04-14T22:10:50.103Z,51.80
2023-04-14T22:13:16.665Z,51.70
2023-04-14T22:15:43.146Z,51.80
2023-04-14T22:18:09.604Z,51.80
2023-04-14T22:20:36.051Z,51.50
2023-04-14T22:23:02.529Z,51.70
2023-04-14T22:25:29.016Z,51.60
2023-04-14T22:27:59.464Z,51.80
2023-04-14T22:30:25.943Z,51.50
2023-04-14T22:32:52.467Z,51.60
2023-04-14T22:35:18.992Z,51.70
2023-04-14T22:37:45.464Z,51.50
2023-04-14T22:40:11.936Z,51.60
2023-04-14T22:42:38.407Z,51.60
2023-04-14T22:45:04.876Z,51.60
2023-04-14T22:47:31.390Z,51.70
2023-04-14T22:49:57.922Z,51.50
2023-04-14T22:52:24.380Z,51.50
2023-04-14T22:54:50.863Z,51.60
2023-04-14T22:57:17.333Z,51.50
2023-04-14T22:59:43.806Z,51.50
2023-04-14T23:02:10.367Z,51.50
2023-04-14T23:04:36.957Z,51.70
2023-04-14T23:07:03.496Z,51.60
2023-04-14T23:09:29.979Z,51.60
2023-04-14T23:11:56.437Z,51.50
2023-04-14T23:14:22.898Z,51.60
2023-04-14T23:16:49.355Z,51.50
2023-04-14T23:19:15.838Z,51.60
2023-04-14T23:21:42.288Z,51.40
2023-04-14T23:24:08.775Z,51.50
2023-04-14T23:26:35.224Z,51.50
2023-04-14T23:29:01.867Z,51.70
2023-04-14T23:31:28.700Z,51.70
2023-04-14T23:33:55.227Z,51.70
2023-04-14T23:36:21.745Z,51.70
2023-04-14T23:38:48.231Z,51.60
2023-04-14T23:41:14.700Z,51.60
2023-04-14T23:43:41.182Z,51.50
2023-04-14T23:46:07.641Z,51.60
2023-04-14T23:48:34.122Z,51.70
2023-04-14T23:51:18.173Z,51.50
2023-04-14T23:53:47.038Z,51.50
2023-04-14T23:56:13.514Z,51.60
2023-04-14T23:58:39.963Z,51.50
